sensor_id;sensor_type;location;lat;lon;timestamp;temperature;humidity
39621;DHT22;25309;48.686;9.170;2022-09-21T00:01:27;9.00;99.90
39621;DHT22;25309;48.686;9.170;2022-09-21T00:03:56;9.00;99.90
39621;DHT22;25309;48.686;9.170;2022-09-21T00:06:27;9.10;99.90
39621;DHT22;25309;48.686;9.170;2022-09-21T00:08:55;9.00;99.90
39621;DHT22;25309;48.686;9.170;2022-09-21T00:11:24;9.00;99.90
39621;DHT22;25309;48.686;9.170;2022-09-21T00:13:53;8.90;99.90
39621;DHT22;25309;48.686;9.170;2022-09-21T00:16:21;8.90;99.90
39621;DHT22;25309;48.686;9.170;2022-09-21T00:18:48;8.80;99.90
39621;DHT22;25309;48.686;9.170;2022-09-21T00:21:16;8.80;99.90
39621;DHT22;25309;48.686;9.170;2022-09-21T00:23:44;8.80;99.90
39621;DHT22;25309;48.686;9.170;2022-09-21T00:26:13;8.70;99.90
39621;DHT22;25309;48.686;9.170;2022-09-21T00:28:40;8.70;99.90
39621;DHT22;25309;48.686;9.170;2022-09-21T00:31:11;8.70;99.90
39621;DHT22;25309;48.686;9.170;2022-09-21T00:33:38;8.60;99.90
39621;DHT22;25309;48.686;9.170;2022-09-21T00:36:08;8.70;99.90
39621;DHT22;25309;48.686;9.170;2022-09-21T00:38:36;8.60;99.90
39621;DHT22;25309;48.686;9.170;2022-09-21T00:41:06;8.60;99.90
39621;DHT22;25309;48.686;9.170;2022-09-21T00:43:33;8.50;99.90
39621;DHT22;25309;48.686;9.170;2022-09-21T00:46:02;8.40;99.90
39621;DHT22;25309;48.686;9.170;2022-09-21T00:48:30;8.40;99.90
39621;DHT22;25309;48.686;9.170;2022-09-21T00:51:01;8.40;99.90
39621;DHT22;25309;48.686;9.170;2022-09-21T00:53:30;8.40;99.90
39621;DHT22;25309;48.686;9.170;2022-09-21T00:55:58;8.30;99.90
39621;DHT22;25309;48.686;9.170;2022-09-21T00:58:31;8.30;99.90
39621;DHT22;25309;48.686;9.170;2022-09-21T01:01:00;8.30;99.90
39621;DHT22;25309;48.686;9.170;2022-09-21T01:03:29;8.30;99.90
39621;DHT22;25309;48.686;9.170;2022-09-21T01:05:56;8.30;99.90
39621;DHT22;25309;48.686;9.170;2022-09-21T01:08:23;8.30;99.90
39621;DHT22;25309;48.686;9.170;2022-09-21T01:11:17;8.30;99.90
39621;DHT22;25309;48.686;9.170;2022-09-21T01:14:03;8.30;99.90
39621;DHT22;25309;48.686;9.170;2022-09-21T01:16:39;8.20;99.90
39621;DHT22;25309;48.686;9.170;2022-09-21T01:19:19;8.20;99.90
39621;DHT22;25309;48.686;9.170;2022-09-21T01:21:54;8.20;99.90
39621;DHT22;25309;48.686;9.170;2022-09-21T01:24:48;8.10;99.90
39621;DHT22;25309;48.686;9.170;2022-09-21T01:27:56;8.10;99.90
39621;DHT22;25309;48.686;9.170;2022-09-21T01:30:29;8.00;99.90
39621;DHT22;25309;48.686;9.170;2022-09-21T01:33:03;8.00;99.90
39621;DHT22;25309;48.686;9.170;2022-09-21T01:35:32;8.00;99.90
39621;DHT22;25309;48.686;9.170;2022-09-21T01:38:03;8.00;99.90
39621;DHT22;25309;48.686;9.170;2022-09-21T01:40:38;8.00;99.90
39621;DHT22;25309;48.686;9.170;2022-09-21T01:43:09;8.00;99.90
39621;DHT22;25309;48.686;9.170;2022-09-21T01:45:40;8.00;99.90
39621;DHT22;25309;48.686;9.170;2022-09-21T01:48:08;8.00;99.90
39621;DHT22;25309;48.686;9.170;2022-09-21T01:50:37;8.00;99.90
39621;DHT22;25309;48.686;9.170;2022-09-21T01:53:08;8.00;99.90
39621;DHT22;25309;48.686;9.170;2022-09-21T01:55:40;8.00;99.90
39621;DHT22;25309;48.686;9.170;2022-09-21T01:58:13;7.90;99.90
39621;DHT22;25309;48.686;9.170;2022-09-21T02:00:43;7.90;99.90
39621;DHT22;25309;48.686;9.170;2022-09-21T02:03:15;7.80;99.90
39621;DHT22;25309;48.686;9.170;2022-09-21T02:05:44;7.70;99.90
39621;DHT22;25309;48.686;9.170;2022-09-21T02:08:11;7.60;99.90
39621;DHT22;25309;48.686;9.170;2022-09-21T02:10:44;7.60;99.90
39621;DHT22;25309;48.686;9.170;2022-09-21T02:13:11;7.50;99.90
39621;DHT22;25309;48.686;9.170;2022-09-21T02:15:50;7.50;99.90
39621;DHT22;25309;48.686;9.170;2022-09-21T02:18:31;7.50;99.90
39621;DHT22;25309;48.686;9.170;2022-09-21T02:21:02;7.40;99.90
39621;DHT22;25309;48.686;9.170;2022-09-21T02:23:36;7.50;99.90
39621;DHT22;25309;48.686;9.170;2022-09-21T02:26:12;7.40;99.90
39621;DHT22;25309;48.686;9.170;2022-09-21T02:28:46;7.40;99.90
39621;DHT22;25309;48.686;9.170;2022-09-21T02:31:25;7.30;99.90
39621;DHT22;25309;48.686;9.170;2022-09-21T02:33:58;7.30;99.90
39621;DHT22;25309;48.686;9.170;2022-09-21T02:36:31;7.30;99.90
39621;DHT22;25309;48.686;9.170;2022-09-21T02:39:04;7.30;99.90
39621;DHT22;25309;48.686;9.170;2022-09-21T02:41:37;7.40;99.90
39621;DHT22;25309;48.686;9.170;2022-09-21T02:44:10;7.40;99.90
39621;DHT22;25309;48.686;9.170;2022-09-21T02:46:43;7.40;99.90
39621;DHT22;25309;48.686;9.170;2022-09-21T02:49:15;7.40;99.90
39621;DHT22;25309;48.686;9.170;2022-09-21T02:51:46;7.40;99.90
39621;DHT22;25309;48.686;9.170;2022-09-21T02:54:16;7.40;99.90
39621;DHT22;25309;48.686;9.170;2022-09-21T02:56:46;7.40;99.90
39621;DHT22;25309;48.686;9.170;2022-09-21T02:59:15;7.40;99.90
39621;DHT22;25309;48.686;9.170;2022-09-21T03:01:46;7.40;99.90
39621;DHT22;25309;48.686;9.170;2022-09-21T03:04:13;7.40;99.90
39621;DHT22;25309;48.686;9.170;2022-09-21T03:06:39;7.30;99.90
39621;DHT22;25309;48.686;9.170;2022-09-21T03:09:07;7.30;99.90
39621;DHT22;25309;48.686;9.170;2022-09-21T03:11:34;7.30;99.90
39621;DHT22;25309;48.686;9.170;2022-09-21T03:14:04;7.20;99.90
39621;DHT22;25309;48.686;9.170;2022-09-21T03:16:34;7.10;99.90
39621;DHT22;25309;48.686;9.170;2022-09-21T03:19:03;7.00;99.90
39621;DHT22;25309;48.686;9.170;2022-09-21T03:21:30;7.00;99.90
39621;DHT22;25309;48.686;9.170;2022-09-21T03:23:57;7.00;99.90
39621;DHT22;25309;48.686;9.170;2022-09-21T03:26:24;6.90;99.90
39621;DHT22;25309;48.686;9.170;2022-09-21T03:28:51;6.90;99.90
39621;DHT22;25309;48.686;9.170;2022-09-21T03:31:20;7.00;99.90
39621;DHT22;25309;48.686;9.170;2022-09-21T03:33:48;6.90;99.90
39621;DHT22;25309;48.686;9.170;2022-09-21T03:36:16;7.00;99.90
39621;DHT22;25309;48.686;9.170;2022-09-21T03:38:43;7.00;99.90
39621;DHT22;25309;48.686;9.170;2022-09-21T03:41:11;7.00;99.90
39621;DHT22;25309;48.686;9.170;2022-09-21T03:43:39;7.00;99.90
39621;DHT22;25309;48.686;9.170;2022-09-21T03:46:06;7.00;99.90
39621;DHT22;25309;48.686;9.170;2022-09-21T03:48:33;7.00;99.90
39621;DHT22;25309;48.686;9.170;2022-09-21T03:50:59;7.00;99.90
39621;DHT22;25309;48.686;9.170;2022-09-21T03:53:28;7.00;99.90
39621;DHT22;25309;48.686;9.170;2022-09-21T03:55:56;6.90;99.90
39621;DHT22;25309;48.686;9.170;2022-09-21T03:58:23;6.90;99.90
39621;DHT22;25309;48.686;9.170;2022-09-21T04:00:50;6.80;99.90
39621;DHT22;25309;48.686;9.170;2022-09-21T04:03:17;6.80;99.90
39621;DHT22;25309;48.686;9.170;2022-09-21T04:05:44;6.80;99.90
39621;DHT22;25309;48.686;9.170;2022-09-21T04:08:11;6.80;99.90
39621;DHT22;25309;48.686;9.170;2022-09-21T04:10:39;6.90;99.90
39621;DHT22;25309;48.686;9.170;2022-09-21T04:13:08;6.90;99.90
39621;DHT22;25309;48.686;9.170;2022-09-21T04:15:35;6.90;99.90
39621;DHT22;25309;48.686;9.170;2022-09-21T04:18:02;6.80;99.90
39621;DHT22;25309;48.686;9.170;2022-09-21T04:20:29;6.80;99.90
39621;DHT22;25309;48.686;9.170;2022-09-21T04:22:56;6.80;99.90
39621;DHT22;25309;48.686;9.170;2022-09-21T04:25:23;6.80;99.90
39621;DHT22;25309;48.686;9.170;2022-09-21T04:27:51;6.80;99.90
39621;DHT22;25309;48.686;9.170;2022-09-21T04:30:18;6.80;99.90
39621;DHT22;25309;48.686;9.170;2022-09-21T04:32:46;6.80;99.90
39621;DHT22;25309;48.686;9.170;2022-09-21T04:35:13;6.70;99.90
39621;DHT22;25309;48.686;9.170;2022-09-21T04:37:40;6.70;99.90
39621;DHT22;25309;48.686;9.170;2022-09-21T04:40:07;6.70;99.90
39621;DHT22;25309;48.686;9.170;2022-09-21T04:42:35;6.70;99.90
39621;DHT22;25309;48.686;9.170;2022-09-21T04:45:03;6.70;99.90
39621;DHT22;25309;48.686;9.170;2022-09-21T04:47:30;6.70;99.90
39621;DHT22;25309;48.686;9.170;2022-09-21T04:49:57;6.60;99.90
39621;DHT22;25309;48.686;9.170;2022-09-21T04:52:24;6.70;99.90
39621;DHT22;25309;48.686;9.170;2022-09-21T04:54:51;6.60;99.90
39621;DHT22;25309;48.686;9.170;2022-09-21T04:57:18;6.60;99.90
39621;DHT22;25309;48.686;9.170;2022-09-21T04:59:45;6.60;99.90
39621;DHT22;25309;48.686;9.170;2022-09-21T05:02:14;6.60;99.90
39621;DHT22;25309;48.686;9.170;2022-09-21T05:04:40;6.60;99.90
39621;DHT22;25309;48.686;9.170;2022-09-21T05:07:07;6.60;99.90
39621;DHT22;25309;48.686;9.170;2022-09-21T05:09:34;6.60;99.90
39621;DHT22;25309;48.686;9.170;2022-09-21T05:12:20;6.60;99.90
39621;DHT22;25309;48.686;9.170;2022-09-21T05:14:47;6.60;99.90
39621;DHT22;25309;48.686;9.170;2022-09-21T05:17:15;6.60;99.90
39621;DHT22;25309;48.686;9.170;2022-09-21T05:19:42;6.60;99.90
39621;DHT22;25309;48.686;9.170;2022-09-21T05:22:09;6.60;99.90
39621;DHT22;25309;48.686;9.170;2022-09-21T05:24:36;6.60;99.90
39621;DHT22;25309;48.686;9.170;2022-09-21T05:27:03;6.60;99.90
39621;DHT22;25309;48.686;9.170;2022-09-21T05:29:30;6.50;99.90
39621;DHT22;25309;48.686;9.170;2022-09-21T05:32:02;6.50;99.90
39621;DHT22;25309;48.686;9.170;2022-09-21T05:34:49;6.50;99.90
39621;DHT22;25309;48.686;9.170;2022-09-21T05:37:40;6.50;99.90
39621;DHT22;25309;48.686;9.170;2022-09-21T05:40:10;6.50;99.90
39621;DHT22;25309;48.686;9.170;2022-09-21T05:42:39;6.40;99.90
39621;DHT22;25309;48.686;9.170;2022-09-21T05:45:08;6.40;99.90
39621;DHT22;25309;48.686;9.170;2022-09-21T05:47:39;6.40;99.90
39621;DHT22;25309;48.686;9.170;2022-09-21T05:50:23;6.40;99.90
39621;DHT22;25309;48.686;9.170;2022-09-21T05:53:00;6.40;99.90
39621;DHT22;25309;48.686;9.170;2022-09-21T05:55:35;6.40;99.90
39621;DHT22;25309;48.686;9.170;2022-09-21T05:58:11;6.40;99.90
39621;DHT22;25309;48.686;9.170;2022-09-21T06:00:45;6.50;99.90
39621;DHT22;25309;48.686;9.170;2022-09-21T06:03:25;6.50;99.90
39621;DHT22;25309;48.686;9.170;2022-09-21T06:05:55;6.60;99.90
39621;DHT22;25309;48.686;9.170;2022-09-21T06:08:22;6.70;99.90
39621;DHT22;25309;48.686;9.170;2022-09-21T06:10:50;6.70;99.90
39621;DHT22;25309;48.686;9.170;2022-09-21T06:13:17;6.80;99.90
39621;DHT22;25309;48.686;9.170;2022-09-21T06:15:44;6.90;99.90
39621;DHT22;25309;48.686;9.170;2022-09-21T06:18:12;6.90;99.90
39621;DHT22;25309;48.686;9.170;2022-09-21T06:20:43;7.00;99.90
39621;DHT22;25309;48.686;9.170;2022-09-21T06:23:13;7.10;99.90
39621;DHT22;25309;48.686;9.170;2022-09-21T06:25:40;7.10;99.90
39621;DHT22;25309;48.686;9.170;2022-09-21T06:28:08;7.20;99.90
39621;DHT22;25309;48.686;9.170;2022-09-21T06:30:36;7.20;99.90
39621;DHT22;25309;48.686;9.170;2022-09-21T06:33:05;7.30;99.90
39621;DHT22;25309;48.686;9.170;2022-09-21T06:35:34;7.40;99.90
39621;DHT22;25309;48.686;9.170;2022-09-21T06:38:03;7.40;99.90
39621;DHT22;25309;48.686;9.170;2022-09-21T06:40:34;7.50;99.90
39621;DHT22;25309;48.686;9.170;2022-09-21T06:43:04;7.60;99.90
39621;DHT22;25309;48.686;9.170;2022-09-21T06:45:31;7.60;99.90
39621;DHT22;25309;48.686;9.170;2022-09-21T06:47:58;7.70;99.90
39621;DHT22;25309;48.686;9.170;2022-09-21T06:50:25;7.80;99.90
39621;DHT22;25309;48.686;9.170;2022-09-21T06:52:52;7.90;99.90
39621;DHT22;25309;48.686;9.170;2022-09-21T06:55:19;7.90;99.90
39621;DHT22;25309;48.686;9.170;2022-09-21T06:57:47;8.00;99.90
39621;DHT22;25309;48.686;9.170;2022-09-21T07:00:16;8.10;99.90
39621;DHT22;25309;48.686;9.170;2022-09-21T07:02:44;8.20;99.90
39621;DHT22;25309;48.686;9.170;2022-09-21T07:05:11;8.30;99.90
39621;DHT22;25309;48.686;9.170;2022-09-21T07:07:38;8.40;99.90
39621;DHT22;25309;48.686;9.170;2022-09-21T07:10:06;8.50;99.90
39621;DHT22;25309;48.686;9.170;2022-09-21T07:12:40;8.60;99.90
39621;DHT22;25309;48.686;9.170;2022-09-21T07:15:09;8.70;99.90
39621;DHT22;25309;48.686;9.170;2022-09-21T07:17:37;8.70;99.90
39621;DHT22;25309;48.686;9.170;2022-09-21T07:20:06;8.80;99.90
39621;DHT22;25309;48.686;9.170;2022-09-21T07:22:34;8.90;99.90
39621;DHT22;25309;48.686;9.170;2022-09-21T07:25:01;9.00;99.90
39621;DHT22;25309;48.686;9.170;2022-09-21T07:27:29;9.10;99.90
39621;DHT22;25309;48.686;9.170;2022-09-21T07:29:56;9.30;99.90
39621;DHT22;25309;48.686;9.170;2022-09-21T07:32:24;9.40;99.90
39621;DHT22;25309;48.686;9.170;2022-09-21T07:34:51;9.60;99.90
39621;DHT22;25309;48.686;9.170;2022-09-21T07:37:23;9.70;99.90
39621;DHT22;25309;48.686;9.170;2022-09-21T07:39:50;9.80;99.90
39621;DHT22;25309;48.686;9.170;2022-09-21T07:42:19;10.00;99.90
39621;DHT22;25309;48.686;9.170;2022-09-21T07:44:47;10.00;99.90
39621;DHT22;25309;48.686;9.170;2022-09-21T07:47:14;10.10;99.90
39621;DHT22;25309;48.686;9.170;2022-09-21T07:49:43;10.20;99.90
39621;DHT22;25309;48.686;9.170;2022-09-21T07:52:09;10.40;99.90
39621;DHT22;25309;48.686;9.170;2022-09-21T07:54:37;10.50;99.90
39621;DHT22;25309;48.686;9.170;2022-09-21T07:57:03;10.70;99.90
39621;DHT22;25309;48.686;9.170;2022-09-21T07:59:49;10.90;99.90
39621;DHT22;25309;48.686;9.170;2022-09-21T08:02:16;11.10;99.90
39621;DHT22;25309;48.686;9.170;2022-09-21T08:04:44;11.30;99.90
39621;DHT22;25309;48.686;9.170;2022-09-21T08:07:11;11.60;99.90
39621;DHT22;25309;48.686;9.170;2022-09-21T08:09:38;12.10;99.90
39621;DHT22;25309;48.686;9.170;2022-09-21T08:12:06;12.80;99.90
39621;DHT22;25309;48.686;9.170;2022-09-21T08:14:34;14.30;99.90
39621;DHT22;25309;48.686;9.170;2022-09-21T08:17:01;15.90;99.90
39621;DHT22;25309;48.686;9.170;2022-09-21T08:19:28;17.30;99.90
39621;DHT22;25309;48.686;9.170;2022-09-21T08:21:56;18.50;99.90
39621;DHT22;25309;48.686;9.170;2022-09-21T08:24:24;19.70;99.90
39621;DHT22;25309;48.686;9.170;2022-09-21T08:26:52;20.80;98.30
39621;DHT22;25309;48.686;9.170;2022-09-21T08:29:19;22.00;96.10
39621;DHT22;25309;48.686;9.170;2022-09-21T08:31:46;22.90;93.40
39621;DHT22;25309;48.686;9.170;2022-09-21T08:34:13;23.80;91.60
39621;DHT22;25309;48.686;9.170;2022-09-21T08:36:41;24.60;90.10
39621;DHT22;25309;48.686;9.170;2022-09-21T08:39:10;25.30;87.90
39621;DHT22;25309;48.686;9.170;2022-09-21T08:42:04;26.10;83.40
39621;DHT22;25309;48.686;9.170;2022-09-21T08:44:39;26.80;80.80
39621;DHT22;25309;48.686;9.170;2022-09-21T08:47:10;27.20;78.90
39621;DHT22;25309;48.686;9.170;2022-09-21T08:49:40;27.80;76.70
39621;DHT22;25309;48.686;9.170;2022-09-21T08:52:12;28.40;74.00
39621;DHT22;25309;48.686;9.170;2022-09-21T08:54:50;28.90;72.50
39621;DHT22;25309;48.686;9.170;2022-09-21T08:57:29;29.40;71.00
39621;DHT22;25309;48.686;9.170;2022-09-21T08:59:58;29.80;69.40
39621;DHT22;25309;48.686;9.170;2022-09-21T09:02:37;30.30;67.70
39621;DHT22;25309;48.686;9.170;2022-09-21T09:05:15;30.90;65.80
39621;DHT22;25309;48.686;9.170;2022-09-21T09:10:42;31.50;96.40
39621;DHT22;25309;48.686;9.170;2022-09-21T09:13:26;31.20;92.90
39621;DHT22;25309;48.686;9.170;2022-09-21T09:16:05;31.30;91.90
39621;DHT22;25309;48.686;9.170;2022-09-21T09:18:40;31.10;91.90
39621;DHT22;25309;48.686;9.170;2022-09-21T09:21:12;31.10;92.00
39621;DHT22;25309;48.686;9.170;2022-09-21T09:23:58;30.60;91.50
39621;DHT22;25309;48.686;9.170;2022-09-21T09:26:33;30.80;89.10
39621;DHT22;25309;48.686;9.170;2022-09-21T09:29:06;30.50;89.80
39621;DHT22;25309;48.686;9.170;2022-09-21T09:31:38;31.00;89.20
39621;DHT22;25309;48.686;9.170;2022-09-21T09:34:10;30.50;89.50
39621;DHT22;25309;48.686;9.170;2022-09-21T09:36:41;30.80;89.30
39621;DHT22;25309;48.686;9.170;2022-09-21T09:39:25;30.20;90.40
39621;DHT22;25309;48.686;9.170;2022-09-21T09:45:11;29.50;85.90
39621;DHT22;25309;48.686;9.170;2022-09-21T09:47:49;28.70;86.90
39621;DHT22;25309;48.686;9.170;2022-09-21T09:50:26;28.40;84.30
39621;DHT22;25309;48.686;9.170;2022-09-21T09:52:58;28.00;85.70
39621;DHT22;25309;48.686;9.170;2022-09-21T09:55:34;27.30;87.10
39621;DHT22;25309;48.686;9.170;2022-09-21T09:58:03;27.40;88.10
39621;DHT22;25309;48.686;9.170;2022-09-21T10:00:30;27.40;87.20
39621;DHT22;25309;48.686;9.170;2022-09-21T10:02:57;27.10;86.80
39621;DHT22;25309;48.686;9.170;2022-09-21T10:05:31;27.30;86.80
39621;DHT22;25309;48.686;9.170;2022-09-21T10:07:59;27.30;87.20
39621;DHT22;25309;48.686;9.170;2022-09-21T10:10:31;27.20;86.30
39621;DHT22;25309;48.686;9.170;2022-09-21T10:13:09;26.70;85.00
39621;DHT22;25309;48.686;9.170;2022-09-21T10:15:41;26.70;87.60
39621;DHT22;25309;48.686;9.170;2022-09-21T10:18:20;26.10;88.30
39621;DHT22;25309;48.686;9.170;2022-09-21T10:20:55;25.90;89.20
39621;DHT22;25309;48.686;9.170;2022-09-21T10:23:24;25.90;87.30
39621;DHT22;25309;48.686;9.170;2022-09-21T10:25:56;25.70;87.80
39621;DHT22;25309;48.686;9.170;2022-09-21T10:28:25;25.90;87.80
39621;DHT22;25309;48.686;9.170;2022-09-21T10:31:16;25.00;87.20
39621;DHT22;25309;48.686;9.170;2022-09-21T10:33:51;24.90;89.10
39621;DHT22;25309;48.686;9.170;2022-09-21T10:36:27;24.30;89.50
39621;DHT22;25309;48.686;9.170;2022-09-21T10:38:55;24.30;88.80
39621;DHT22;25309;48.686;9.170;2022-09-21T10:41:22;24.50;88.30
39621;DHT22;25309;48.686;9.170;2022-09-21T10:43:50;24.40;88.80
39621;DHT22;25309;48.686;9.170;2022-09-21T10:46:31;24.70;88.90
39621;DHT22;25309;48.686;9.170;2022-09-21T10:48:59;24.30;88.60
39621;DHT22;25309;48.686;9.170;2022-09-21T10:51:28;24.40;88.70
39621;DHT22;25309;48.686;9.170;2022-09-21T10:53:56;25.00;88.80
39621;DHT22;25309;48.686;9.170;2022-09-21T10:56:24;24.50;87.50
39621;DHT22;25309;48.686;9.170;2022-09-21T10:59:18;24.10;89.50
39621;DHT22;25309;48.686;9.170;2022-09-21T11:01:47;24.30;90.00
39621;DHT22;25309;48.686;9.170;2022-09-21T11:04:21;24.20;89.00
39621;DHT22;25309;48.686;9.170;2022-09-21T11:06:53;23.90;88.70
39621;DHT22;25309;48.686;9.170;2022-09-21T11:09:24;23.40;90.10
39621;DHT22;25309;48.686;9.170;2022-09-21T11:11:57;23.30;90.50
39621;DHT22;25309;48.686;9.170;2022-09-21T11:14:37;23.40;91.00
39621;DHT22;25309;48.686;9.170;2022-09-21T11:17:10;23.70;90.80
39621;DHT22;25309;48.686;9.170;2022-09-21T11:19:43;23.50;90.90
39621;DHT22;25309;48.686;9.170;2022-09-21T11:22:15;23.90;90.40
39621;DHT22;25309;48.686;9.170;2022-09-21T11:24:47;24.10;90.10
39621;DHT22;25309;48.686;9.170;2022-09-21T11:27:18;24.70;89.20
39621;DHT22;25309;48.686;9.170;2022-09-21T11:29:56;24.80;87.70
39621;DHT22;25309;48.686;9.170;2022-09-21T11:32:39;25.00;86.80
39621;DHT22;25309;48.686;9.170;2022-09-21T11:35:22;25.10;86.60
39621;DHT22;25309;48.686;9.170;2022-09-21T11:38:08;25.30;88.00
39621;DHT22;25309;48.686;9.170;2022-09-21T11:41:02;25.70;87.70
39621;DHT22;25309;48.686;9.170;2022-09-21T11:43:39;25.40;87.00
39621;DHT22;25309;48.686;9.170;2022-09-21T11:46:20;24.60;87.70
39621;DHT22;25309;48.686;9.170;2022-09-21T11:48:58;24.30;88.60
39621;DHT22;25309;48.686;9.170;2022-09-21T11:51:43;23.60;88.70
39621;DHT22;25309;48.686;9.170;2022-09-21T11:54:28;23.10;89.20
39621;DHT22;25309;48.686;9.170;2022-09-21T11:57:02;22.90;90.10
39621;DHT22;25309;48.686;9.170;2022-09-21T11:59:44;22.70;89.30
39621;DHT22;25309;48.686;9.170;2022-09-21T12:02:32;22.20;74.50
39621;DHT22;25309;48.686;9.170;2022-09-21T12:05:09;21.70;76.10
39621;DHT22;25309;48.686;9.170;2022-09-21T12:07:53;21.70;75.40
39621;DHT22;25309;48.686;9.170;2022-09-21T12:10:37;21.40;74.40
39621;DHT22;25309;48.686;9.170;2022-09-21T12:13:09;21.50;75.40
39621;DHT22;25309;48.686;9.170;2022-09-21T12:15:42;21.50;74.80
39621;DHT22;25309;48.686;9.170;2022-09-21T12:18:18;22.00;75.80
39621;DHT22;25309;48.686;9.170;2022-09-21T12:20:49;22.40;75.20
39621;DHT22;25309;48.686;9.170;2022-09-21T12:23:25;22.50;75.60
39621;DHT22;25309;48.686;9.170;2022-09-21T12:25:55;23.10;74.10
39621;DHT22;25309;48.686;9.170;2022-09-21T12:28:27;23.30;73.80
39621;DHT22;25309;48.686;9.170;2022-09-21T12:30:58;23.80;72.40
39621;DHT22;25309;48.686;9.170;2022-09-21T12:33:36;23.90;71.70
39621;DHT22;25309;48.686;9.170;2022-09-21T12:36:07;24.20;71.60
39621;DHT22;25309;48.686;9.170;2022-09-21T12:38:41;24.80;72.30
39621;DHT22;25309;48.686;9.170;2022-09-21T12:41:14;25.00;71.50
39621;DHT22;25309;48.686;9.170;2022-09-21T12:43:46;24.90;71.60
39621;DHT22;25309;48.686;9.170;2022-09-21T12:46:19;25.20;70.80
39621;DHT22;25309;48.686;9.170;2022-09-21T12:48:48;25.30;70.90
39621;DHT22;25309;48.686;9.170;2022-09-21T12:51:18;25.40;70.70
39621;DHT22;25309;48.686;9.170;2022-09-21T12:53:50;25.70;70.00
39621;DHT22;25309;48.686;9.170;2022-09-21T12:56:30;25.80;69.80
39621;DHT22;25309;48.686;9.170;2022-09-21T12:59:16;25.70;69.60
39621;DHT22;25309;48.686;9.170;2022-09-21T13:01:50;25.70;69.40
39621;DHT22;25309;48.686;9.170;2022-09-21T13:04:44;25.30;70.30
39621;DHT22;25309;48.686;9.170;2022-09-21T13:10:20;24.60;71.40
39621;DHT22;25309;48.686;9.170;2022-09-21T13:12:53;24.10;72.80
39621;DHT22;25309;48.686;9.170;2022-09-21T13:15:23;23.60;72.70
39621;DHT22;25309;48.686;9.170;2022-09-21T13:17:57;23.00;74.30
39621;DHT22;25309;48.686;9.170;2022-09-21T13:20:33;22.90;74.10
39621;DHT22;25309;48.686;9.170;2022-09-21T13:23:00;22.50;75.20
39621;DHT22;25309;48.686;9.170;2022-09-21T13:25:29;22.40;75.80
39621;DHT22;25309;48.686;9.170;2022-09-21T13:28:00;22.50;75.50
39621;DHT22;25309;48.686;9.170;2022-09-21T13:30:31;22.30;76.00
39621;DHT22;25309;48.686;9.170;2022-09-21T13:32:59;21.90;75.90
39621;DHT22;25309;48.686;9.170;2022-09-21T13:38:32;21.50;75.70
39621;DHT22;25309;48.686;9.170;2022-09-21T13:41:01;21.10;71.60
39621;DHT22;25309;48.686;9.170;2022-09-21T13:43:45;20.90;72.90
39621;DHT22;25309;48.686;9.170;2022-09-21T13:46:52;20.80;71.80
39621;DHT22;25309;48.686;9.170;2022-09-21T13:49:45;21.00;71.60
39621;DHT22;25309;48.686;9.170;2022-09-21T13:52:38;21.40;71.40
39621;DHT22;25309;48.686;9.170;2022-09-21T13:55:24;21.80;70.70
39621;DHT22;25309;48.686;9.170;2022-09-21T13:57:55;22.20;70.60
39621;DHT22;25309;48.686;9.170;2022-09-21T14:00:35;22.30;69.00
39621;DHT22;25309;48.686;9.170;2022-09-21T14:03:05;22.20;69.20
39621;DHT22;25309;48.686;9.170;2022-09-21T14:05:44;22.10;68.90
39621;DHT22;25309;48.686;9.170;2022-09-21T14:08:27;21.90;68.70
39621;DHT22;25309;48.686;9.170;2022-09-21T14:11:00;21.90;70.60
39621;DHT22;25309;48.686;9.170;2022-09-21T14:13:32;22.10;68.40
39621;DHT22;25309;48.686;9.170;2022-09-21T14:16:26;22.10;67.80
39621;DHT22;25309;48.686;9.170;2022-09-21T14:22:41;21.50;69.60
39621;DHT22;25309;48.686;9.170;2022-09-21T14:25:46;21.20;69.80
39621;DHT22;25309;48.686;9.170;2022-09-21T14:28:17;20.80;71.60
39621;DHT22;25309;48.686;9.170;2022-09-21T14:30:53;20.70;70.60
39621;DHT22;25309;48.686;9.170;2022-09-21T14:33:31;20.80;70.90
39621;DHT22;25309;48.686;9.170;2022-09-21T14:36:04;20.90;71.60
39621;DHT22;25309;48.686;9.170;2022-09-21T14:38:39;20.70;70.20
39621;DHT22;25309;48.686;9.170;2022-09-21T14:41:08;20.40;70.10
39621;DHT22;25309;48.686;9.170;2022-09-21T14:43:48;20.20;70.70
39621;DHT22;25309;48.686;9.170;2022-09-21T14:46:34;20.10;71.80
39621;DHT22;25309;48.686;9.170;2022-09-21T14:49:13;20.10;72.90
39621;DHT22;25309;48.686;9.170;2022-09-21T14:51:52;20.20;72.50
39621;DHT22;25309;48.686;9.170;2022-09-21T14:54:44;20.40;73.50
39621;DHT22;25309;48.686;9.170;2022-09-21T14:57:45;20.50;71.40
39621;DHT22;25309;48.686;9.170;2022-09-21T15:00:19;20.40;72.00
39621;DHT22;25309;48.686;9.170;2022-09-21T15:03:06;20.50;71.90
39621;DHT22;25309;48.686;9.170;2022-09-21T15:05:37;20.60;70.30
39621;DHT22;25309;48.686;9.170;2022-09-21T15:08:16;20.50;70.10
39621;DHT22;25309;48.686;9.170;2022-09-21T15:11:08;20.50;70.10
39621;DHT22;25309;48.686;9.170;2022-09-21T15:13:50;20.30;71.40
39621;DHT22;25309;48.686;9.170;2022-09-21T15:16:34;20.30;72.00
39621;DHT22;25309;48.686;9.170;2022-09-21T15:19:19;20.30;71.80
39621;DHT22;25309;48.686;9.170;2022-09-21T15:21:48;20.50;70.80
39621;DHT22;25309;48.686;9.170;2022-09-21T15:24:19;20.60;70.10
39621;DHT22;25309;48.686;9.170;2022-09-21T15:26:47;20.60;70.30
39621;DHT22;25309;48.686;9.170;2022-09-21T15:29:20;20.50;69.20
39621;DHT22;25309;48.686;9.170;2022-09-21T15:31:52;20.20;69.50
39621;DHT22;25309;48.686;9.170;2022-09-21T15:34:19;19.90;68.90
39621;DHT22;25309;48.686;9.170;2022-09-21T15:36:46;19.80;70.10
39621;DHT22;25309;48.686;9.170;2022-09-21T15:39:24;19.70;70.50
39621;DHT22;25309;48.686;9.170;2022-09-21T15:42:12;19.60;71.10
39621;DHT22;25309;48.686;9.170;2022-09-21T15:44:44;19.60;70.90
39621;DHT22;25309;48.686;9.170;2022-09-21T15:47:18;19.50;71.70
39621;DHT22;25309;48.686;9.170;2022-09-21T15:49:45;19.40;72.60
39621;DHT22;25309;48.686;9.170;2022-09-21T15:52:20;19.30;72.70
39621;DHT22;25309;48.686;9.170;2022-09-21T15:54:51;19.20;72.40
39621;DHT22;25309;48.686;9.170;2022-09-21T15:57:27;19.10;73.70
39621;DHT22;25309;48.686;9.170;2022-09-21T15:59:55;19.00;73.60
39621;DHT22;25309;48.686;9.170;2022-09-21T16:02:25;19.00;73.20
39621;DHT22;25309;48.686;9.170;2022-09-21T16:04:55;18.90;72.00
39621;DHT22;25309;48.686;9.170;2022-09-21T16:07:26;18.70;71.90
39621;DHT22;25309;48.686;9.170;2022-09-21T16:09:55;18.50;72.70
39621;DHT22;25309;48.686;9.170;2022-09-21T16:12:46;18.50;73.20
39621;DHT22;25309;48.686;9.170;2022-09-21T16:15:18;18.40;72.90
39621;DHT22;25309;48.686;9.170;2022-09-21T16:17:58;18.30;73.00
39621;DHT22;25309;48.686;9.170;2022-09-21T16:20:42;18.20;73.50
39621;DHT22;25309;48.686;9.170;2022-09-21T16:23:15;18.00;74.50
39621;DHT22;25309;48.686;9.170;2022-09-21T16:25:42;18.00;75.00
39621;DHT22;25309;48.686;9.170;2022-09-21T16:28:29;17.90;76.00